Time,TemperatureF,DewpointF,PressureIn,WindDirection,WindDirectionDegrees,WindSpeedMPH,WindSpeedGustMPH,Humidity,HourlyPrecipIn,Conditions,Clouds,dailyrainin,SoftwareType,DateUTC
2013-09-20 00:00:00,63.7,61.3,29.72,WNW,292,0.0,6.0,92,0.00,,,1.28,VWS V15.00,2013-09-20 05:00:00,
2013-09-20 00:02:00,61.8,60.4,29.74,WNW,291,8.0,8.0,95,0.00,,SCT110,1.28,VWS V14.01,2013-09-20 05:02:00,
2013-09-20 00:07:00,62.0,60.6,29.74,WNW,287,4.0,9.0,95,0.00,,SCT110,0.00,VWS V14.01,2013-09-20 05:07:00,
2013-09-20 00:12:00,62.1,60.7,29.74,WNW,284,0.0,9.0,95,0.00,,SCT110,0.00,VWS V14.01,2013-09-20 05:12:00,
2013-09-20 00:15:00,63.1,61.0,29.73,WNW,292,6.0,6.0,93,0.00,,,1.28,VWS V15.00,2013-09-20 05:15:00,
2013-09-20 00:17:00,62.1,60.7,29.73,WNW,284,7.0,9.0,95,0.00,,SCT110,0.00,VWS V14.01,2013-09-20 05:17:00,
2013-09-20 00:22:00,62.1,60.7,29.73,WNW,284,2.0,7.0,95,0.00,,SCT110,0.00,VWS V14.01,2013-09-20 05:22:00,
2013-09-20 00:27:00,62.0,60.6,29.73,WNW,282,6.0,7.0,95,0.00,,SCT110,0.00,VWS V14.01,2013-09-20 05:27:00,
2013-09-20 00:30:00,62.7,61.0,29.74,WNW,292,0.0,6.0,94,0.00,,,1.28,VWS V15.00,2013-09-20 05:30:00,
2013-09-20 00:32:00,61.8,60.4,29.72,WNW,282,5.0,9.0,95,0.00,,SCT110,0.00,VWS V14.01,2013-09-20 05:32:00,
2013-09-20 00:37:00,61.8,60.4,29.72,West,281,6.0,7.0,95,0.00,,SCT110,0.00,VWS V14.01,2013-09-20 05:37:00,
2013-09-20 00:42:00,61.6,60.2,29.72,West,281,0.0,7.0,95,0.00,,CLR,0.00,VWS V14.01,2013-09-20 05:42:00,
2013-09-20 00:45:00,62.0,60.3,29.74,WNW,292,0.0,0.0,94,0.00,,,1.28,VWS V15.00,2013-09-20 05:45:00,
2013-09-20 00:47:00,61.5,60.1,29.72,West,281,5.0,8.0,95,0.00,,CLR,0.00,VWS V14.01,2013-09-20 05:47:00,
2013-09-20 00:52:00,61.5,60.1,29.72,West,281,0.0,6.0,95,0.00,,CLR,0.00,VWS V14.01,2013-09-20 05:52:00,
2013-09-20 00:57:00,61.3,60.2,29.72,West,281,5.0,9.0,96,0.00,,CLR,0.00,VWS V14.01,2013-09-20 05:57:00,
2013-09-20 01:00:00,61.8,60.4,29.74,WNW,291,5.0,8.0,95,0.00,,,1.28,VWS V15.00,2013-09-20 06:00:00,
2013-09-20 01:02:00,61.2,59.8,29.72,WNW,282,4.0,5.0,95,0.00,,CLR,0.00,VWS V14.01,2013-09-20 06:02:00,
2013-09-20 01:07:00,61.0,59.6,29.72,WNW,283,0.0,6.0,95,0.00,,CLR,0.00,VWS V14.01,2013-09-20 06:07:00,
2013-09-20 01:12:00,60.9,59.5,29.72,WNW,283,0.0,8.0,95,0.00,,CLR,0.00,VWS V14.01,2013-09-20 06:12:00,
2013-09-20 01:15:00,62.1,60.7,29.73,WNW,284,7.0,9.0,95,0.00,,,0.00,VWS V15.00,2013-09-20 06:15:00,
2013-09-20 01:17:00,60.7,59.3,29.73,West,278,6.0,6.0,95,0.00,,CLR,0.00,VWS V14.01,2013-09-20 06:17:00,
2013-09-20 01:22:00,60.7,59.3,29.73,West,274,4.0,8.0,95,0.00,,CLR,0.00,VWS V14.01,2013-09-20 06:22:00,
2013-09-20 01:27:00,60.5,58.8,29.73,West,274,7.0,11.0,94,0.00,,CLR,0.00,VWS V14.01,2013-09-20 06:27:00,
2013-09-20 01:30:00,61.8,60.4,29.72,WNW,282,4.0,9.0,95,0.00,,,0.00,VWS V15.00,2013-09-20 06:30:00,
2013-09-20 01:32:00,60.4,58.4,29.73,West,276,5.0,5.0,93,0.00,,CLR,0.00,VWS V14.01,2013-09-20 06:32:00,
2013-09-20 01:38:00,60.4,58.1,29.73,West,277,5.0,7.0,92,0.00,,CLR,0.00,VWS V14.01,2013-09-20 06:38:00,
2013-09-20 01:43:00,60.2,57.9,29.73,West,279,3.0,9.0,92,0.00,,SCT120,0.00,VWS V14.01,2013-09-20 06:43:00,
2013-09-20 01:45:00,61.5,60.1,29.72,West,281,5.0,8.0,95,0.00,,,0.00,VWS V15.00,2013-09-20 06:45:00,
2013-09-20 01:48:00,60.1,57.8,29.73,West,280,5.0,6.0,92,0.00,,SCT120,0.00,VWS V14.01,2013-09-20 06:48:00,
2013-09-20 01:53:00,59.9,57.6,29.73,West,281,0.0,6.0,92,0.00,,SCT120,0.00,VWS V14.01,2013-09-20 06:53:00,
2013-09-20 01:58:00,59.8,57.5,29.73,West,281,6.0,6.0,92,0.00,,SCT120,0.00,VWS V14.01,2013-09-20 06:58:00,
2013-09-20 02:00:00,61.2,59.8,29.72,WNW,282,5.0,9.0,95,0.00,,,0.00,VWS V15.00,2013-09-20 07:00:00,
2013-09-20 02:03:00,59.8,57.5,29.74,West,274,5.0,11.0,92,0.00,,SCT120,0.00,VWS V14.01,2013-09-20 07:03:00,
2013-09-20 02:08:00,59.6,57.0,29.74,West,265,5.0,11.0,91,0.00,,SCT120,0.00,VWS V14.01,2013-09-20 07:08:00,
2013-09-20 02:13:00,59.6,57.0,29.74,West,262,9.0,11.0,91,0.00,,SCT120,0.00,VWS V14.01,2013-09-20 07:13:00,
2013-09-20 02:15:00,60.7,59.3,29.73,West,278,6.0,10.0,95,0.00,,,0.00,VWS V15.00,2013-09-20 07:15:00,
2013-09-20 02:18:00,59.6,56.7,29.74,West,268,5.0,10.0,90,0.00,,SCT120,0.00,VWS V14.01,2013-09-20 07:18:00,
2013-09-20 02:23:00,59.6,56.4,29.74,West,269,7.0,10.0,89,0.00,,SCT120,0.00,VWS V14.01,2013-09-20 07:23:00,
2013-09-20 02:28:00,59.5,56.3,29.74,West,266,6.0,10.0,89,0.00,,SCT120,0.00,VWS V14.01,2013-09-20 07:28:00,
2013-09-20 02:30:00,60.4,58.4,29.73,West,276,5.0,11.0,93,0.00,,,0.00,VWS V15.00,2013-09-20 07:30:00,
2013-09-20 02:33:00,59.5,56.3,29.73,West,274,5.0,10.0,89,0.00,,SCT120,0.00,VWS V14.01,2013-09-20 07:33:00,
2013-09-20 02:38:00,59.3,56.1,29.73,West,270,3.0,10.0,89,0.00,,SCT120,0.00,VWS V14.01,2013-09-20 07:38:00,
2013-09-20 02:43:00,59.3,55.8,29.73,West,272,7.0,10.0,88,0.00,,CLR,0.00,VWS V14.01,2013-09-20 07:43:00,
2013-09-20 02:45:00,60.1,57.8,29.73,West,280,5.0,9.0,92,0.00,,,0.00,VWS V15.00,2013-09-20 07:45:00,
2013-09-20 02:48:00,59.2,55.7,29.74,West,269,6.0,9.0,88,0.00,,CLR,0.00,VWS V14.01,2013-09-20 07:48:00,
2013-09-20 02:53:00,59.0,55.1,29.74,West,272,7.0,10.0,87,0.00,,SCT110,0.00,VWS V14.01,2013-09-20 07:53:00,
2013-09-20 02:58:00,59.0,55.1,29.74,West,272,0.0,10.0,87,0.00,,SCT110,0.00,VWS V14.01,2013-09-20 07:58:00,
2013-09-20 03:00:00,59.8,57.5,29.74,West,274,11.0,11.0,92,0.00,,,0.00,VWS V15.00,2013-09-20 08:00:00,
2013-09-20 03:03:00,58.9,55.0,29.73,West,280,6.0,9.0,87,0.00,,SCT110,0.00,VWS V14.01,2013-09-20 08:03:00,
2013-09-20 03:08:00,58.9,54.7,29.73,West,275,7.0,11.0,86,0.00,,SCT110,0.00,VWS V14.01,2013-09-20 08:08:00,
2013-09-20 03:13:00,58.7,54.5,29.73,West,274,9.0,12.0,86,0.00,,SCT110,0.00,VWS V14.01,2013-09-20 08:13:00,
2013-09-20 03:15:00,59.6,56.7,29.74,West,271,7.0,13.0,90,0.00,,,0.00,VWS V15.00,2013-09-20 08:15:00,
2013-09-20 03:18:00,58.7,54.5,29.73,West,274,9.0,10.0,86,0.00,,SCT110,0.00,VWS V14.01,2013-09-20 08:18:00,
2013-09-20 03:23:00,58.6,54.4,29.73,West,276,4.0,10.0,86,0.00,,SCT110,0.00,VWS V14.01,2013-09-20 08:23:00,
2013-09-20 03:28:00,58.6,54.4,29.73,WNW,291,3.0,11.0,86,0.00,,SCT110,0.00,VWS V14.01,2013-09-20 08:28:00,
2013-09-20 03:30:00,59.5,56.3,29.73,West,266,5.0,10.0,89,0.00,,OVC016,0.00,VWS V15.00,2013-09-20 08:30:00,
2013-09-20 03:33:00,58.4,54.2,29.74,West,266,8.0,8.0,86,0.00,,SCT110,0.00,VWS V14.01,2013-09-20 08:33:00,
2013-09-20 03:39:00,58.4,54.2,29.74,West,274,9.0,11.0,86,0.00,,SCT110,0.00,VWS V14.01,2013-09-20 08:39:00,
2013-09-20 03:44:00,58.3,54.1,29.74,West,280,0.0,11.0,86,0.00,,SCT110,0.00,VWS V14.01,2013-09-20 08:44:00,
2013-09-20 03:45:00,59.2,55.7,29.74,West,269,4.0,11.0,88,0.00,,,0.00,VWS V15.00,2013-09-20 08:45:00,
2013-09-20 03:49:00,58.3,54.1,29.75,West,274,5.0,9.0,86,0.00,,SCT110,0.00,VWS V14.01,2013-09-20 08:49:00,
2013-09-20 03:54:00,58.3,54.1,29.75,West,270,7.0,12.0,86,0.00,,BKN110,0.00,VWS V14.01,2013-09-20 08:54:00,
2013-09-20 03:59:00,58.1,54.3,29.75,West,263,9.0,12.0,87,0.00,,BKN110,0.00,VWS V14.01,2013-09-20 08:59:00,
2013-09-20 04:00:00,58.9,55.0,29.73,West,277,5.0,11.0,87,0.00,,,0.00,VWS V15.00,2013-09-20 09:00:00,
2013-09-20 04:04:00,58.0,54.2,29.75,WSW,253,4.0,9.0,87,0.00,,BKN110,0.00,VWS V14.01,2013-09-20 09:04:00,
2013-09-20 04:09:00,58.0,54.2,29.75,WSW,254,9.0,11.0,87,0.01,,BKN110,0.01,VWS V14.01,2013-09-20 09:09:00,
2013-09-20 04:14:00,57.8,54.3,29.75,WSW,256,6.0,11.0,88,0.02,,BKN110,0.02,VWS V14.01,2013-09-20 09:14:00,
2013-09-20 04:15:00,58.7,54.5,29.73,West,274,5.0,12.0,86,0.00,,,0.00,VWS V15.00,2013-09-20 09:15:00,
2013-09-20 04:19:00,57.6,54.4,29.75,WSW,253,5.0,6.0,89,0.02,,BKN110,0.02,VWS V14.01,2013-09-20 09:19:00,
2013-09-20 04:24:00,57.5,54.6,29.75,WSW,255,3.0,9.0,90,0.02,,BKN110,0.02,VWS V14.01,2013-09-20 09:24:00,
2013-09-20 04:29:00,57.3,54.7,29.75,WSW,256,0.0,9.0,91,0.02,,BKN110,0.02,VWS V14.01,2013-09-20 09:29:00,
2013-09-20 04:30:00,58.6,54.4,29.74,West,267,7.0,14.0,86,0.00,,,0.00,VWS V15.00,2013-09-20 09:30:00,
2013-09-20 04:34:00,57.3,54.7,29.75,WSW,255,6.0,6.0,91,0.02,,BKN110,0.02,VWS V14.01,2013-09-20 09:34:00,
2013-09-20 04:39:00,57.3,55.0,29.75,WSW,255,4.0,8.0,92,0.02,,BKN110,0.02,VWS V14.01,2013-09-20 09:39:00,
2013-09-20 04:44:00,57.3,55.0,29.75,WSW,255,6.0,9.0,92,0.02,,OVC017,0.02,VWS V14.01,2013-09-20 09:44:00,
2013-09-20 04:45:00,58.3,54.1,29.75,West,275,7.0,11.0,86,0.00,,,0.00,VWS V15.00,2013-09-20 09:45:00,
2013-09-20 04:49:00,57.2,54.9,29.75,WSW,255,0.0,0.0,92,0.02,,OVC017,0.02,VWS V14.01,2013-09-20 09:49:00,
2013-09-20 04:54:00,57.2,54.9,29.75,WSW,256,7.0,7.0,92,0.02,,OVC017,0.02,VWS V14.01,2013-09-20 09:54:00,
2013-09-20 04:59:00,57.2,54.9,29.75,WSW,257,7.0,9.0,92,0.02,,OVC017,0.02,VWS V14.01,2013-09-20 09:59:00,
2013-09-20 05:00:00,58.0,54.2,29.75,West,261,6.0,12.0,87,0.00,,,0.00,VWS V15.00,2013-09-20 10:00:00,
2013-09-20 05:05:00,57.2,54.9,29.75,WSW,258,0.0,6.0,92,0.02,,OVC017,0.02,VWS V14.01,2013-09-20 10:05:00,
2013-09-20 05:10:00,57.2,54.9,29.75,WSW,257,0.0,6.0,92,0.02,,OVC017,0.02,VWS V14.01,2013-09-20 10:10:00,
2013-09-20 05:15:00,57.2,54.9,29.75,WSW,255,5.0,10.0,92,0.02,,OVC017,0.02,VWS V14.01,2013-09-20 10:15:00,
2013-09-20 05:20:00,57.2,54.9,29.75,WSW,255,5.0,6.0,92,0.00,,OVC017,0.02,VWS V14.01,2013-09-20 10:20:00,
2013-09-20 05:25:00,57.2,54.9,29.75,WSW,256,4.0,10.0,92,0.00,,OVC017,0.02,VWS V14.01,2013-09-20 10:25:00,
2013-09-20 05:30:00,57.3,55.0,29.75,WSW,256,5.0,10.0,92,0.00,,OVC017,0.02,VWS V14.01,2013-09-20 10:30:00,
2013-09-20 05:35:00,57.3,55.0,29.75,WSW,255,4.0,6.0,92,0.00,,OVC017,0.02,VWS V14.01,2013-09-20 10:35:00,
2013-09-20 05:40:00,57.3,55.0,29.75,WSW,255,4.0,7.0,92,0.00,,OVC019,0.02,VWS V14.01,2013-09-20 10:40:00,
2013-09-20 05:45:00,57.2,54.9,29.75,WSW,255,7.0,7.0,92,0.00,,OVC019,0.02,VWS V14.01,2013-09-20 10:45:00,
2013-09-20 05:50:00,57.3,55.0,29.75,WSW,256,4.0,10.0,92,0.00,,OVC017,0.02,VWS V14.01,2013-09-20 10:50:00,
2013-09-20 05:55:00,57.3,55.0,29.75,West,259,0.0,10.0,92,0.00,,OVC017,0.02,VWS V14.01,2013-09-20 10:55:00,
2013-09-20 06:00:00,57.3,55.0,29.75,West,263,0.0,10.0,92,0.00,,OVC017,0.02,VWS V14.01,2013-09-20 11:00:00,
2013-09-20 06:05:00,57.3,55.0,29.75,West,262,6.0,6.0,92,0.00,,OVC017,0.02,VWS V14.01,2013-09-20 11:05:00,
2013-09-20 06:10:00,57.3,55.0,29.75,West,262,4.0,8.0,92,0.00,,OVC017,0.02,VWS V14.01,2013-09-20 11:10:00,
2013-09-20 06:15:00,57.3,55.0,29.75,West,262,7.0,8.0,92,0.00,,OVC017,0.02,VWS V14.01,2013-09-20 11:15:00,
2013-09-20 06:20:00,57.3,55.0,29.75,WSW,258,4.0,9.0,92,0.00,,OVC017,0.02,VWS V14.01,2013-09-20 11:20:00,
2013-09-20 06:25:00,57.3,55.0,29.75,West,259,4.0,9.0,92,0.00,,OVC017,0.02,VWS V14.01,2013-09-20 11:25:00,
2013-09-20 06:30:00,57.3,55.0,29.75,West,260,6.0,9.0,92,0.00,,OVC017,0.02,VWS V14.01,2013-09-20 11:30:00,
2013-09-20 06:36:00,57.2,54.9,29.75,West,265,5.0,9.0,92,0.00,,OVC017,0.02,VWS V14.01,2013-09-20 11:36:00,
2013-09-20 06:41:00,57.2,54.6,29.75,West,267,5.0,9.0,91,0.00,,OVC018,0.02,VWS V14.01,2013-09-20 11:41:00,
2013-09-20 06:45:00,57.3,55.0,29.75,WSW,255,0.0,7.0,92,0.00,,,0.02,VWS V15.00,2013-09-20 11:45:00,
2013-09-20 06:46:00,57.2,54.6,29.75,West,279,0.0,10.0,91,0.00,,OVC018,0.02,VWS V14.01,2013-09-20 11:46:00,
2013-09-20 06:51:00,57.2,54.6,29.75,West,277,4.0,7.0,91,0.00,,OVC018,0.02,VWS V14.01,2013-09-20 11:51:00,
2013-09-20 06:56:00,57.2,54.6,29.75,West,276,3.0,7.0,91,0.00,,OVC018,0.02,VWS V14.01,2013-09-20 11:56:00,
2013-09-20 07:00:00,57.3,55.0,29.75,West,262,5.0,10.0,92,0.00,,,0.02,VWS V15.00,2013-09-20 12:00:00,
2013-09-20 07:01:00,57.2,54.6,29.75,West,276,0.0,7.0,91,0.00,,OVC018,0.02,VWS V14.01,2013-09-20 12:01:00,
2013-09-20 07:06:00,57.2,54.6,29.75,West,267,5.0,10.0,91,0.00,,OVC018,0.02,VWS V14.01,2013-09-20 12:06:00,
2013-09-20 07:11:00,57.0,54.4,29.75,West,260,3.0,10.0,91,0.00,,OVC018,0.02,VWS V14.01,2013-09-20 12:11:00,
2013-09-20 07:15:00,57.3,55.0,29.75,WSW,257,5.0,11.0,92,0.00,,,0.02,VWS V15.00,2013-09-20 12:15:00,
2013-09-20 07:16:00,57.0,54.4,29.75,West,260,3.0,10.0,91,0.00,,OVC018,0.02,VWS V14.01,2013-09-20 12:16:00,
2013-09-20 07:21:00,57.0,54.4,29.76,West,261,6.0,7.0,91,0.00,,OVC018,0.02,VWS V14.01,2013-09-20 12:21:00,
2013-09-20 07:26:00,57.0,54.4,29.76,WSW,258,6.0,11.0,91,0.00,,OVC018,0.02,VWS V14.01,2013-09-20 12:26:00,
2013-09-20 07:30:00,57.3,55.0,29.75,West,265,9.0,10.0,92,0.00,,,0.02,VWS V15.00,2013-09-20 12:30:00,
2013-09-20 07:31:00,57.0,54.4,29.77,WSW,256,6.0,11.0,91,0.00,,OVC018,0.02,VWS V14.01,2013-09-20 12:31:00,
2013-09-20 07:36:00,57.0,54.4,29.77,WSW,258,4.0,11.0,91,0.00,,OVC018,0.02,VWS V14.01,2013-09-20 12:36:00,
2013-09-20 07:41:00,57.0,54.4,29.77,WSW,256,5.0,11.0,91,0.00,,OVC018,0.02,VWS V14.01,2013-09-20 12:41:00,
2013-09-20 07:45:00,57.2,54.6,29.75,West,276,0.0,10.0,91,0.00,,,0.02,VWS V15.00,2013-09-20 12:45:00,
2013-09-20 07:47:00,57.0,54.1,29.77,West,265,6.0,14.0,90,0.00,,OVC018,0.02,VWS V14.01,2013-09-20 12:47:00,
2013-09-20 07:52:00,57.0,54.1,29.77,West,261,4.0,11.0,90,0.00,,OVC020,0.02,VWS V14.01,2013-09-20 12:52:00,
2013-09-20 07:57:00,57.0,54.1,29.77,West,263,9.0,13.0,90,0.00,,OVC020,0.02,VWS V14.01,2013-09-20 12:57:00,
2013-09-20 08:00:00,57.2,54.6,29.75,West,276,0.0,7.0,91,0.00,,,0.02,VWS V15.00,2013-09-20 13:00:00,
2013-09-20 08:02:00,57.0,54.1,29.77,West,262,1.0,13.0,90,0.00,,OVC020,0.02,VWS V14.01,2013-09-20 13:02:00,
2013-09-20 08:07:00,57.0,54.1,29.77,West,262,4.0,12.0,90,0.00,,OVC020,0.02,VWS V14.01,2013-09-20 13:07:00,
2013-09-20 08:12:00,57.0,54.1,29.77,West,259,8.0,12.0,90,0.00,,OVC020,0.02,VWS V14.01,2013-09-20 13:12:00,
2013-09-20 08:15:00,57.0,54.4,29.76,West,260,0.0,10.0,91,0.00,,,0.02,VWS V15.00,2013-09-20 13:15:00,
2013-09-20 08:17:00,57.0,54.4,29.77,West,265,4.0,12.0,91,0.00,,OVC020,0.02,VWS V14.01,2013-09-20 13:17:00,
2013-09-20 08:22:00,57.2,54.6,29.77,West,264,3.0,11.0,91,0.00,,OVC020,0.02,VWS V14.01,2013-09-20 13:22:00,
2013-09-20 08:27:00,57.3,54.7,29.77,WSW,254,10.0,13.0,91,0.00,,OVC020,0.02,VWS V14.01,2013-09-20 13:27:00,
2013-09-20 08:30:00,57.0,54.4,29.77,WSW,256,6.0,11.0,91,0.00,,,0.02,VWS V15.00,2013-09-20 13:30:00,
2013-09-20 08:32:00,57.5,54.9,29.77,West,267,6.0,13.0,91,0.00,,OVC020,0.02,VWS V14.01,2013-09-20 13:32:00,
2013-09-20 08:37:00,57.6,55.0,29.77,West,263,3.0,10.0,91,0.00,,OVC020,0.02,VWS V14.01,2013-09-20 13:37:00,
2013-09-20 08:42:00,57.8,54.9,29.77,WSW,250,13.0,15.0,90,0.00,,OVC028,0.02,VWS V14.01,2013-09-20 13:42:00,
2013-09-20 08:45:00,57.0,54.1,29.77,West,264,6.0,14.0,90,0.00,,,0.02,VWS V15.00,2013-09-20 13:45:00,
2013-09-20 08:47:00,58.0,55.1,29.77,West,277,11.0,15.0,90,0.00,,OVC028,0.02,VWS V14.01,2013-09-20 13:47:00,
2013-09-20 08:52:00,58.4,55.2,29.77,WSW,249,6.0,15.0,89,0.00,,OVC009,0.02,VWS V14.01,2013-09-20 13:52:00,
2013-09-20 08:57:00,58.7,55.2,29.77,WNW,293,0.0,19.0,88,0.00,,OVC009,0.02,VWS V14.01,2013-09-20 13:57:00,
2013-09-20 09:00:00,57.0,54.1,29.77,West,262,0.0,13.0,90,0.00,,,0.02,VWS V15.00,2013-09-20 14:00:00,
2013-09-20 09:02:00,58.4,54.5,29.77,West,265,9.0,19.0,87,0.00,,OVC009,0.02,VWS V14.01,2013-09-20 14:02:00,
2013-09-20 09:07:00,58.3,54.5,29.77,West,277,0.0,14.0,87,0.00,,OVC009,0.02,VWS V14.01,2013-09-20 14:07:00,
2013-09-20 09:12:00,58.1,54.6,29.77,WSW,255,4.0,14.0,88,0.00,,OVC009,0.02,VWS V14.01,2013-09-20 14:12:00,
2013-09-20 09:15:00,57.0,54.1,29.77,West,265,5.0,12.0,90,0.00,,,0.02,VWS V15.00,2013-09-20 14:15:00,
2013-09-20 09:17:00,57.8,54.9,29.77,WSW,258,11.0,14.0,90,0.00,,OVC009,0.02,VWS V14.01,2013-09-20 14:17:00,
2013-09-20 09:22:00,57.3,54.7,29.77,West,274,4.0,12.0,91,0.03,,OVC009,0.06,VWS V14.01,2013-09-20 14:22:00,
2013-09-20 09:27:00,57.0,54.7,29.77,West,277,7.0,12.0,92,0.04,,OVC009,0.07,VWS V14.01,2013-09-20 14:27:00,
2013-09-20 09:30:00,57.6,55.0,29.77,West,267,3.0,13.0,91,0.00,,,0.02,VWS V15.00,2013-09-20 14:30:00,
2013-09-20 09:32:00,56.7,54.7,29.78,West,262,5.0,12.0,93,0.05,,OVC009,0.08,VWS V14.01,2013-09-20 14:32:00,
2013-09-20 09:37:00,56.7,55.0,29.78,West,260,0.0,7.0,94,0.05,,OVC009,0.08,VWS V14.01,2013-09-20 14:37:00,
2013-09-20 09:42:00,56.6,54.9,29.78,WSW,258,6.0,11.0,94,0.05,,OVC011,0.08,VWS V14.01,2013-09-20 14:42:00,
2013-09-20 09:45:00,58.1,55.2,29.77,WSW,251,8.0,15.0,90,0.00,,,0.02,VWS V15.00,2013-09-20 14:45:00,
2013-09-20 09:47:00,56.7,55.3,29.78,West,271,3.0,4.0,95,0.05,,OVC011,0.08,VWS V14.01,2013-09-20 14:47:00,
2013-09-20 09:52:00,56.7,55.3,29.78,West,273,0.0,4.0,95,0.05,,-RA,0.08,VWS V14.01,2013-09-20 14:52:00,
2013-09-20 09:57:00,56.9,55.5,29.78,WNW,284,4.0,9.0,95,0.05,,-RA,0.08,VWS V14.01,2013-09-20 14:57:00,
2013-09-20 10:00:00,58.4,54.5,29.77,West,265,10.0,19.0,87,0.00,,,0.02,VWS V15.00,2013-09-20 15:00:00,
2013-09-20 10:02:00,57.0,55.9,29.79,WNW,292,10.0,10.0,96,0.05,,-RA,0.08,VWS V14.01,2013-09-20 15:02:00,
2013-09-20 10:07:00,57.0,55.9,29.79,NW,318,9.0,13.0,96,0.07,,-RA,0.09,VWS V14.01,2013-09-20 15:07:00,
2013-09-20 10:13:00,56.7,55.3,29.79,NW,307,9.0,21.0,95,0.10,,-RA,0.12,VWS V14.01,2013-09-20 15:13:00,
2013-09-20 10:15:00,57.8,54.9,29.77,WSW,258,11.0,14.0,90,0.00,,,0.02,VWS V15.00,2013-09-20 15:15:00,
2013-09-20 10:18:00,56.5,55.1,29.79,NW,321,10.0,12.0,95,0.11,,-RA,0.13,VWS V14.01,2013-09-20 15:18:00,
2013-09-20 10:23:00,56.5,55.1,29.79,NW,326,0.0,16.0,95,0.11,,-RA,0.13,VWS V14.01,2013-09-20 15:23:00,
2013-09-20 10:28:00,56.5,55.4,29.79,NW,316,3.0,16.0,96,0.11,,-RA,0.13,VWS V14.01,2013-09-20 15:28:00,
2013-09-20 10:30:00,56.7,54.7,29.78,West,262,5.0,12.0,93,0.05,,,0.08,VWS V15.00,2013-09-20 15:30:00,
2013-09-20 10:33:00,56.5,55.1,29.79,NW,326,6.0,11.0,95,0.05,,-RA,0.13,VWS V14.01,2013-09-20 15:33:00,
2013-09-20 10:38:00,56.7,55.6,29.79,NW,307,5.0,11.0,96,0.05,,-RA,0.13,VWS V14.01,2013-09-20 15:38:00,
2013-09-20 10:43:00,56.7,55.3,29.79,NW,306,0.0,11.0,95,0.05,,OVC035,0.13,VWS V14.01,2013-09-20 15:43:00,
2013-09-20 10:45:00,56.7,55.3,29.78,West,271,4.0,11.0,95,0.05,,,0.08,VWS V15.00,2013-09-20 15:45:00,
2013-09-20 10:48:00,57.0,55.6,29.80,NW,312,0.0,0.0,95,0.05,,OVC035,0.13,VWS V14.01,2013-09-20 15:48:00,
2013-09-20 10:53:00,57.2,55.8,29.80,NW,310,0.0,7.0,95,0.05,,OVC037,0.13,VWS V14.01,2013-09-20 15:53:00,
2013-09-20 10:58:00,57.6,56.5,29.80,NW,310,0.0,7.0,96,0.05,,OVC037,0.13,VWS V14.01,2013-09-20 15:58:00,
2013-09-20 11:00:00,57.0,55.9,29.79,WNW,291,1.0,9.0,96,0.05,,,0.08,VWS V15.00,2013-09-20 16:00:00,
2013-09-20 11:03:00,58.1,57.0,29.80,NW,310,0.0,0.0,96,0.05,,OVC037,0.13,VWS V14.01,2013-09-20 16:03:00,
2013-09-20 11:08:00,58.3,56.9,29.80,NW,310,0.0,8.0,95,0.05,,OVC037,0.13,VWS V14.01,2013-09-20 16:08:00,
2013-09-20 11:13:00,58.4,57.0,29.80,NW,307,3.0,8.0,95,0.05,,OVC037,0.13,VWS V14.01,2013-09-20 16:13:00,
2013-09-20 11:15:00,56.6,55.2,29.79,NW,323,10.0,21.0,95,0.10,,,0.12,VWS V15.00,2013-09-20 16:15:00,
2013-09-20 11:18:00,58.3,56.6,29.80,WNW,284,12.0,16.0,94,0.01,,OVC037,0.13,VWS V14.01,2013-09-20 16:18:00,
2013-09-20 11:23:00,57.5,55.8,29.80,NW,317,6.0,18.0,94,0.01,,OVC037,0.13,VWS V14.01,2013-09-20 16:23:00,
2013-09-20 11:28:00,57.3,55.6,29.80,NW,307,7.0,20.0,94,0.01,,OVC037,0.13,VWS V14.01,2013-09-20 16:28:00,
2013-09-20 11:30:00,56.5,55.1,29.79,NW,319,9.0,16.0,95,0.11,,,0.13,VWS V15.00,2013-09-20 16:30:00,
2013-09-20 11:33:00,57.5,56.1,29.80,NW,317,11.0,12.0,95,0.00,,OVC037,0.13,VWS V14.01,2013-09-20 16:33:00,
2013-09-20 11:38:00,57.8,56.4,29.80,NNW,333,9.0,13.0,95,0.00,,OVC037,0.13,VWS V14.01,2013-09-20 16:38:00,
2013-09-20 11:43:00,57.6,55.9,29.80,WNW,302,12.0,19.0,94,0.00,,OVC022,0.13,VWS V14.01,2013-09-20 16:43:00,
2013-09-20 11:45:00,57.0,55.6,29.80,NW,312,0.0,11.0,95,0.05,,,0.13,VWS V15.00,2013-09-20 16:45:00,
2013-09-20 11:48:00,57.6,55.6,29.81,WNW,291,10.0,19.0,93,0.00,,OVC022,0.13,VWS V14.01,2013-09-20 16:48:00,
2013-09-20 11:54:00,57.2,54.9,29.81,NW,325,14.0,21.0,92,0.00,,OVC024,0.13,VWS V14.01,2013-09-20 16:54:00,
2013-09-20 11:59:00,57.0,55.0,29.81,WNW,295,4.0,21.0,93,0.00,,OVC024,0.13,VWS V14.01,2013-09-20 16:59:00,
2013-09-20 12:00:00,58.0,56.6,29.80,NW,310,0.0,7.0,95,0.05,,,0.13,VWS V15.00,2013-09-20 17:00:00,
2013-09-20 12:04:00,57.0,54.7,29.81,WNW,300,13.0,18.0,92,0.00,,OVC024,0.13,VWS V14.01,2013-09-20 17:04:00,
2013-09-20 12:09:00,56.7,54.4,29.81,NW,305,6.0,19.0,92,0.00,,OVC024,0.13,VWS V14.01,2013-09-20 17:09:00,
2013-09-20 12:14:00,56.6,54.3,29.81,WNW,290,2.0,19.0,92,0.00,,OVC024,0.13,VWS V14.01,2013-09-20 17:14:00,
2013-09-20 12:15:00,58.3,56.6,29.80,WNW,297,13.0,19.0,94,0.05,,,0.13,VWS V15.00,2013-09-20 17:15:00,
2013-09-20 12:20:00,56.6,54.3,29.81,WNW,293,5.0,11.0,92,0.00,,OVC024,0.13,VWS V14.01,2013-09-20 17:20:00,
2013-09-20 12:25:00,56.9,55.8,29.81,WNW,293,6.0,21.0,96,0.00,,OVC024,0.13,VWS V14.01,2013-09-20 17:25:00,
2013-09-20 12:30:00,57.0,54.1,29.81,WNW,295,11.0,21.0,90,0.01,,OVC024,0.14,VWS V14.01,2013-09-20 17:30:00,
2013-09-20 12:36:00,57.0,53.8,29.82,WNW,292,2.0,20.0,89,0.01,,OVC024,0.14,VWS V14.01,2013-09-20 17:36:00,
2013-09-20 12:41:00,56.9,53.7,29.82,NW,305,0.0,20.0,89,0.01,,OVC028,0.14,VWS V14.01,2013-09-20 17:41:00,
2013-09-20 12:45:00,57.6,55.9,29.81,WNW,301,12.0,19.0,94,0.00,,,0.13,VWS V15.00,2013-09-20 17:45:00,
2013-09-20 12:46:00,57.0,53.5,29.82,WNW,292,11.0,20.0,88,0.01,,OVC028,0.14,VWS V14.01,2013-09-20 17:46:00,
2013-09-20 12:51:00,57.3,53.8,29.82,NW,317,6.0,14.0,88,0.01,,OVC028,0.14,VWS V14.01,2013-09-20 17:51:00,
2013-09-20 12:56:00,57.5,54.0,29.82,NNW,339,8.0,17.0,88,0.01,,OVC028,0.14,VWS V14.01,2013-09-20 17:56:00,
2013-09-20 13:00:00,57.2,55.2,29.81,NW,318,10.0,21.0,93,0.00,,,0.13,VWS V15.00,2013-09-20 18:00:00,
2013-09-20 13:01:00,57.6,54.1,29.82,WNW,300,7.0,17.0,88,0.01,,OVC028,0.14,VWS V14.01,2013-09-20 18:01:00,
2013-09-20 13:06:00,57.5,53.3,29.82,NW,304,2.0,14.0,86,0.01,,OVC028,0.14,VWS V14.01,2013-09-20 18:06:00,
2013-09-20 13:11:00,57.6,53.8,29.82,NW,304,3.0,14.0,87,0.01,,OVC028,0.14,VWS V14.01,2013-09-20 18:11:00,
2013-09-20 13:15:00,56.6,54.3,29.81,WNW,293,10.0,19.0,92,0.00,,,0.13,VWS V15.00,2013-09-20 18:15:00,
2013-09-20 13:16:00,58.1,54.3,29.82,NW,305,14.0,14.0,87,0.01,,OVC028,0.14,VWS V14.01,2013-09-20 18:16:00,
2013-09-20 13:21:00,58.0,53.2,29.82,NW,305,13.0,16.0,84,0.01,,OVC028,0.14,VWS V14.01,2013-09-20 18:21:00,
2013-09-20 13:26:00,58.0,53.2,29.82,NW,310,4.0,16.0,84,0.01,,OVC028,0.14,VWS V14.01,2013-09-20 18:26:00,
2013-09-20 13:30:00,57.0,54.1,29.82,NW,315,14.0,21.0,90,0.01,,,0.14,VWS V15.00,2013-09-20 18:30:00,
2013-09-20 13:31:00,57.8,52.7,29.82,NW,324,11.0,17.0,83,0.01,,OVC028,0.14,VWS V14.01,2013-09-20 18:31:00,
2013-09-20 13:36:00,57.8,52.3,29.82,WNW,300,10.0,16.0,82,0.00,,OVC028,0.14,VWS V14.01,2013-09-20 18:36:00,
2013-09-20 13:41:00,57.8,52.3,29.82,NW,318,5.0,16.0,82,0.00,,OVC023,0.14,VWS V14.01,2013-09-20 18:41:00,
2013-09-20 13:45:00,57.0,53.5,29.82,WNW,300,9.0,20.0,88,0.01,,,0.14,VWS V15.00,2013-09-20 18:45:00,
2013-09-20 13:46:00,58.1,52.3,29.82,NW,314,13.0,16.0,81,0.00,,OVC023,0.14,VWS V14.01,2013-09-20 18:46:00,
2013-09-20 13:51:00,58.4,51.9,29.82,NNW,333,11.0,16.0,79,0.00,,OVC035,0.14,VWS V14.01,2013-09-20 18:51:00,
2013-09-20 13:56:00,58.7,52.2,29.82,NW,308,14.0,16.0,79,0.00,,OVC035,0.14,VWS V14.01,2013-09-20 18:56:00,
2013-09-20 14:00:00,57.6,53.8,29.82,NW,305,9.0,17.0,87,0.01,,,0.14,VWS V15.00,2013-09-20 19:00:00,
2013-09-20 14:01:00,58.6,52.1,29.82,NW,308,6.0,16.0,79,0.00,,OVC035,0.14,VWS V14.01,2013-09-20 19:01:00,
2013-09-20 14:07:00,58.6,52.5,29.82,NW,315,7.0,17.0,80,0.00,,OVC035,0.14,VWS V14.01,2013-09-20 19:07:00,
2013-09-20 14:12:00,59.2,53.0,29.82,NW,314,5.0,17.0,80,0.00,,OVC035,0.14,VWS V14.01,2013-09-20 19:12:00,
2013-09-20 14:15:00,58.1,53.9,29.82,NNW,333,7.0,14.0,86,0.01,,,0.14,VWS V15.00,2013-09-20 19:15:00,
2013-09-20 14:17:00,59.9,53.0,29.81,NW,315,4.0,18.0,78,0.00,,OVC035,0.14,VWS V14.01,2013-09-20 19:17:00,
2013-09-20 14:22:00,60.2,52.3,29.81,NW,306,13.0,18.0,75,0.00,,OVC035,0.14,VWS V14.01,2013-09-20 19:22:00,
2013-09-20 14:27:00,61.0,53.4,29.81,NW,321,14.0,18.0,76,0.00,,OVC035,0.14,VWS V14.01,2013-09-20 19:27:00,
2013-09-20 14:30:00,57.8,52.3,29.82,NW,320,14.0,17.0,82,0.01,,,0.14,VWS V15.00,2013-09-20 19:30:00,
2013-09-20 14:32:00,61.2,52.1,29.81,NNW,347,8.0,21.0,72,0.00,,OVC035,0.14,VWS V14.01,2013-09-20 19:32:00,
2013-09-20 14:37:00,61.6,52.5,29.81,NNW,330,12.0,19.0,72,0.00,,OVC035,0.14,VWS V14.01,2013-09-20 19:37:00,
2013-09-20 14:42:00,62.1,53.3,29.81,NW,314,5.0,19.0,73,0.00,,OVC090,0.14,VWS V14.01,2013-09-20 19:42:00,
2013-09-20 14:45:00,58.3,52.8,29.82,NW,315,16.0,16.0,82,0.00,,,0.14,VWS V15.00,2013-09-20 19:45:00,
2013-09-20 14:47:00,62.6,52.7,29.81,NW,318,9.0,19.0,70,0.00,,OVC090,0.14,VWS V14.01,2013-09-20 19:47:00,
2013-09-20 14:52:00,62.9,53.0,29.81,NW,310,6.0,16.0,70,0.00,,SCT080,0.14,VWS V14.01,2013-09-20 19:52:00,
2013-09-20 14:57:00,63.5,53.2,29.81,NW,323,7.0,17.0,69,0.00,,SCT080,0.14,VWS V14.01,2013-09-20 19:57:00,
2013-09-20 15:00:00,58.6,52.1,29.82,NW,319,12.0,16.0,79,0.00,,,0.14,VWS V15.00,2013-09-20 20:00:00,
2013-09-20 15:02:00,63.7,51.3,29.80,NW,320,13.0,17.0,64,0.00,,SCT080,0.14,VWS V14.01,2013-09-20 20:02:00,
2013-09-20 15:07:00,62.9,50.1,29.80,NNW,334,9.0,19.0,63,0.00,,SCT080,0.14,VWS V14.01,2013-09-20 20:07:00,
2013-09-20 15:13:00,62.7,52.8,29.80,NNW,327,6.0,19.0,70,0.00,,SCT080,0.14,VWS V14.01,2013-09-20 20:13:00,
2013-09-20 15:15:00,59.9,53.0,29.81,NW,313,6.0,18.0,78,0.00,,,0.14,VWS V15.00,2013-09-20 20:15:00,
2013-09-20 15:18:00,62.7,52.0,29.81,NW,317,3.0,5.0,68,0.00,,SCT080,0.14,VWS V14.01,2013-09-20 20:18:00,
2013-09-20 15:23:00,62.3,49.6,29.81,NW,325,7.0,17.0,63,0.00,,SCT080,0.14,VWS V14.01,2013-09-20 20:23:00,
2013-09-20 15:28:00,61.8,51.1,29.81,NW,325,12.0,17.0,68,0.00,,SCT080,0.14,VWS V14.01,2013-09-20 20:28:00,
2013-09-20 15:30:00,61.2,52.1,29.81,NNW,338,14.0,21.0,72,0.00,,,0.14,VWS V15.00,2013-09-20 20:30:00,
2013-09-20 15:33:00,61.2,50.2,29.81,NW,304,13.0,16.0,67,0.00,,SCT080,0.14,VWS V14.01,2013-09-20 20:33:00,
2013-09-20 15:38:00,61.0,49.6,29.81,WNW,302,16.0,16.0,66,0.00,,SCT080,0.14,VWS V14.01,2013-09-20 20:38:00,
2013-09-20 15:43:00,61.8,49.5,29.81,NW,305,14.0,16.0,64,0.00,,SCT048,0.14,VWS V14.01,2013-09-20 20:43:00,
2013-09-20 15:45:00,62.6,53.5,29.81,NW,324,11.0,19.0,72,0.00,,,0.14,VWS V15.00,2013-09-20 20:45:00,
2013-09-20 15:48:00,62.6,49.4,29.81,NNW,329,13.0,13.0,62,0.00,,SCT048,0.14,VWS V14.01,2013-09-20 20:48:00,
2013-09-20 15:53:00,62.9,47.9,29.81,NNW,328,12.0,19.0,58,0.00,,SCT075,0.14,VWS V14.01,2013-09-20 20:53:00,
2013-09-20 15:58:00,62.4,49.7,29.81,NW,317,5.0,19.0,63,0.00,,SCT075,0.14,VWS V14.01,2013-09-20 20:58:00,
2013-09-20 16:00:00,63.7,51.3,29.80,NW,306,15.0,17.0,64,0.00,,,0.14,VWS V15.00,2013-09-20 21:00:00,
2013-09-20 16:03:00,61.8,47.8,29.81,NW,306,12.0,15.0,60,0.00,,SCT075,0.14,VWS V14.01,2013-09-20 21:03:00,
2013-09-20 16:08:00,61.0,47.0,29.81,NW,315,9.0,16.0,60,0.00,,SCT075,0.14,VWS V14.01,2013-09-20 21:08:00,
2013-09-20 16:13:00,60.5,47.9,29.81,NW,304,2.0,16.0,63,0.00,,SCT075,0.14,VWS V14.01,2013-09-20 21:13:00,
2013-09-20 16:15:00,62.7,52.0,29.81,NW,317,5.0,19.0,68,0.00,,,0.14,VWS V15.00,2013-09-20 21:15:00,
2013-09-20 16:18:00,60.4,47.3,29.82,WNW,297,11.0,14.0,62,0.00,,SCT075,0.14,VWS V14.01,2013-09-20 21:18:00,
2013-09-20 16:23:00,60.2,48.4,29.82,WNW,292,4.0,17.0,65,0.00,,SCT075,0.14,VWS V14.01,2013-09-20 21:23:00,
2013-09-20 16:28:00,61.2,48.9,29.82,West,274,4.0,17.0,64,0.00,,SCT075,0.14,VWS V14.01,2013-09-20 21:28:00,
2013-09-20 16:30:00,61.2,50.6,29.81,NW,312,6.0,17.0,68,0.00,,,0.14,VWS V15.00,2013-09-20 21:30:00,
2013-09-20 16:33:00,62.9,49.7,29.81,West,269,11.0,11.0,62,0.00,,SCT075,0.14,VWS V14.01,2013-09-20 21:33:00,
2013-09-20 16:39:00,63.7,49.1,29.81,West,274,13.0,13.0,59,0.00,,SCT075,0.14,VWS V14.01,2013-09-20 21:39:00,
2013-09-20 16:44:00,62.9,47.0,29.81,WNW,295,11.0,14.0,56,0.00,,OVC080,0.14,VWS V14.01,2013-09-20 21:44:00,
2013-09-20 16:45:00,62.4,49.2,29.81,NW,317,12.0,16.0,62,0.00,,,0.14,VWS V15.00,2013-09-20 21:45:00,
2013-09-20 16:49:00,62.6,49.8,29.81,NW,308,7.0,10.0,63,0.00,,OVC080,0.14,VWS V14.01,2013-09-20 21:49:00,
2013-09-20 16:54:00,62.0,49.3,29.81,NNW,333,10.0,18.0,63,0.00,,BKN080,0.14,VWS V14.01,2013-09-20 21:54:00,
2013-09-20 16:59:00,62.0,50.5,29.81,NNW,333,6.0,18.0,66,0.00,,BKN080,0.14,VWS V14.01,2013-09-20 21:59:00,
2013-09-20 17:00:00,62.0,49.3,29.81,NW,304,14.0,19.0,63,0.00,,,0.14,VWS V15.00,2013-09-20 22:00:00,
2013-09-20 17:04:00,62.6,50.3,29.81,NW,306,10.0,14.0,64,0.00,,BKN080,0.14,VWS V14.01,2013-09-20 22:04:00,
2013-09-20 17:09:00,62.4,50.9,29.81,WNW,291,5.0,14.0,66,0.00,,BKN080,0.14,VWS V14.01,2013-09-20 22:09:00,
2013-09-20 17:14:00,62.0,49.7,29.81,WNW,303,10.0,15.0,64,0.00,,BKN080,0.14,VWS V14.01,2013-09-20 22:14:00,
2013-09-20 17:15:00,60.4,47.8,29.82,WNW,294,9.0,20.0,63,0.00,,,0.14,VWS V15.00,2013-09-20 22:15:00,
2013-09-20 17:19:00,62.0,48.4,29.81,WNW,291,11.0,16.0,61,0.00,,BKN080,0.14,VWS V14.01,2013-09-20 22:19:00,
2013-09-20 17:24:00,61.6,48.0,29.81,WNW,293,8.0,16.0,61,0.00,,BKN080,0.14,VWS V14.01,2013-09-20 22:24:00,
2013-09-20 17:29:00,60.9,49.1,29.81,WNW,298,13.0,16.0,65,0.00,,BKN080,0.14,VWS V14.01,2013-09-20 22:29:00,
2013-09-20 17:30:00,62.4,48.3,29.81,West,277,0.0,17.0,60,0.00,,,0.14,VWS V15.00,2013-09-20 22:30:00,
2013-09-20 17:34:00,60.2,48.0,29.82,WNW,293,1.0,10.0,64,0.00,,BKN080,0.14,VWS V14.01,2013-09-20 22:34:00,
2013-09-20 17:39:00,59.9,48.9,29.82,WNW,294,10.0,14.0,67,0.00,,BKN080,0.14,VWS V14.01,2013-09-20 22:39:00,
2013-09-20 17:44:00,59.8,49.2,29.82,WNW,301,9.0,14.0,68,0.00,,BKN060,0.14,VWS V14.01,2013-09-20 22:44:00,
2013-09-20 17:45:00,62.6,49.0,29.81,WNW,296,6.0,14.0,61,0.00,,,0.14,VWS V15.00,2013-09-20 22:45:00,
2013-09-20 17:49:00,59.3,48.4,29.82,NW,307,1.0,7.0,67,0.00,,BKN060,0.14,VWS V14.01,2013-09-20 22:49:00,
2013-09-20 17:54:00,58.9,47.6,29.82,North,2,9.0,19.0,66,0.00,,-RA,0.14,VWS V14.01,2013-09-20 22:54:00,
2013-09-20 17:59:00,58.3,48.6,29.82,North,359,10.0,19.0,70,0.00,,-RA,0.14,VWS V14.01,2013-09-20 22:59:00,
2013-09-20 18:00:00,62.4,50.5,29.81,NW,312,14.0,18.0,65,0.00,,,0.14,VWS V15.00,2013-09-20 23:00:00,
2013-09-20 18:04:00,57.2,47.5,29.83,NNW,336,6.0,7.0,70,0.00,,-RA,0.14,VWS V14.01,2013-09-20 23:04:00,
2013-09-20 18:09:00,56.3,49.5,29.83,WNW,293,9.0,11.0,78,0.06,,-RA,0.20,VWS V14.01,2013-09-20 23:09:00,
2013-09-20 18:14:00,55.0,49.6,29.83,West,280,4.0,11.0,82,0.07,,-RA,0.21,VWS V14.01,2013-09-20 23:14:00,
2013-09-20 18:15:00,62.0,49.3,29.81,WNW,293,13.0,15.0,63,0.00,,,0.14,VWS V15.00,2013-09-20 23:15:00,
2013-09-20 18:19:00,54.2,49.8,29.84,West,279,3.0,5.0,85,0.07,,-RA,0.21,VWS V14.01,2013-09-20 23:19:00,
2013-09-20 18:24:00,53.9,50.1,29.84,West,276,0.0,6.0,87,0.07,,-RA,0.21,VWS V14.01,2013-09-20 23:24:00,
2013-09-20 18:29:00,53.6,50.1,29.84,West,276,0.0,6.0,88,0.07,,-RA,0.21,VWS V14.01,2013-09-20 23:29:00,
2013-09-20 18:30:00,60.4,48.6,29.82,West,274,3.0,16.0,65,0.00,,,0.14,VWS V15.00,2013-09-20 23:30:00,
2013-09-20 18:34:00,53.3,50.2,29.84,West,276,5.0,6.0,89,0.07,,-RA,0.21,VWS V14.01,2013-09-20 23:34:00,
2013-09-20 18:39:00,53.3,50.5,29.84,West,276,0.0,6.0,90,0.07,,-RA,0.21,VWS V14.01,2013-09-20 23:39:00,
2013-09-20 18:44:00,53.2,50.3,29.84,West,274,0.0,6.0,90,0.07,,OVC100,0.21,VWS V14.01,2013-09-20 23:44:00,
2013-09-20 18:45:00,59.5,48.9,29.82,WNW,301,3.0,15.0,68,0.00,,,0.14,VWS V15.00,2013-09-20 23:45:00,
2013-09-20 18:49:00,53.2,50.7,29.85,West,272,6.0,7.0,91,0.07,,OVC100,0.21,VWS V14.01,2013-09-20 23:49:00,
2013-09-20 18:54:00,53.2,50.7,29.85,West,272,4.0,7.0,91,0.07,,OVC120,0.21,VWS V14.01,2013-09-20 23:54:00,
2013-09-20 18:59:00,53.2,50.9,29.85,West,272,0.0,7.0,92,0.07,,OVC120,0.21,VWS V14.01,2013-09-20 23:59:00,
2013-09-20 19:00:00,57.5,47.4,29.83,NNW,337,7.0,19.0,69,0.00,,,0.14,VWS V15.00,2013-09-21 00:00:00,
2013-09-20 19:04:00,53.3,51.0,29.85,West,275,0.0,4.0,92,0.07,,OVC120,0.21,VWS V14.01,2013-09-21 00:04:00,
2013-09-20 19:09:00,53.3,51.0,29.85,West,275,4.0,5.0,92,0.07,,OVC120,0.21,VWS V14.01,2013-09-21 00:09:00,
2013-09-20 19:15:00,53.3,51.0,29.85,West,274,4.0,6.0,92,0.07,,OVC120,0.21,VWS V14.01,2013-09-21 00:15:00,
2013-09-20 19:20:00,53.3,51.0,29.85,West,272,6.0,7.0,92,0.00,,OVC120,0.21,VWS V14.01,2013-09-21 00:20:00,
2013-09-20 19:25:00,53.2,50.9,29.85,West,270,8.0,9.0,92,0.00,,OVC120,0.21,VWS V14.01,2013-09-21 00:25:00,
2013-09-20 19:30:00,53.2,51.2,29.85,West,267,7.0,9.0,93,0.00,,OVC120,0.21,VWS V14.01,2013-09-21 00:30:00,
2013-09-20 19:35:00,53.1,51.1,29.85,West,265,4.0,11.0,93,0.00,,OVC120,0.21,VWS V14.01,2013-09-21 00:35:00,
2013-09-20 19:40:00,53.1,51.1,29.85,West,265,4.0,11.0,93,0.00,,OVC120,0.21,VWS V14.01,2013-09-21 00:40:00,
2013-09-20 19:45:00,52.9,50.9,29.85,West,267,5.0,11.0,93,0.00,,SCT120,0.21,VWS V14.01,2013-09-21 00:45:00,
2013-09-20 19:50:00,52.8,50.8,29.86,West,267,4.0,7.0,93,0.00,,SCT120,0.21,VWS V14.01,2013-09-21 00:50:00,
2013-09-20 19:55:00,52.6,50.6,29.86,West,267,3.0,7.0,93,0.00,,BKN120,0.21,VWS V14.01,2013-09-21 00:55:00,
2013-09-20 20:00:00,52.5,50.5,29.86,West,267,0.0,7.0,93,0.00,,BKN120,0.21,VWS V14.01,2013-09-21 01:00:00,
2013-09-20 20:05:00,52.3,50.3,29.86,West,267,3.0,10.0,93,0.00,,BKN120,0.21,VWS V14.01,2013-09-21 01:05:00,
2013-09-20 20:10:00,52.2,50.2,29.86,West,265,6.0,10.0,93,0.00,,BKN120,0.21,VWS V14.01,2013-09-21 01:10:00,
2013-09-20 20:15:00,52.0,50.0,29.86,West,271,0.0,10.0,93,0.00,,BKN120,0.21,VWS V14.01,2013-09-21 01:15:00,
2013-09-20 20:20:00,51.9,49.9,29.86,West,271,5.0,10.0,93,0.00,,BKN120,0.21,VWS V14.01,2013-09-21 01:20:00,
2013-09-20 20:25:00,51.9,50.2,29.86,West,281,0.0,10.0,94,0.00,,BKN120,0.21,VWS V14.01,2013-09-21 01:25:00,
2013-09-20 20:30:00,51.9,50.2,29.86,WNW,282,4.0,10.0,94,0.00,,BKN120,0.21,VWS V14.01,2013-09-21 01:30:00,
2013-09-20 20:35:00,51.9,50.2,29.87,West,279,4.0,7.0,94,0.00,,BKN120,0.21,VWS V14.01,2013-09-21 01:35:00,
2013-09-20 20:41:00,51.7,50.0,29.87,WNW,286,5.0,9.0,94,0.00,,BKN120,0.21,VWS V14.01,2013-09-21 01:41:00,
2013-09-20 20:45:00,52.9,50.9,29.86,West,267,4.0,11.0,93,0.00,,,0.21,VWS V15.00,2013-09-21 01:45:00,
2013-09-20 20:46:00,51.6,49.9,29.87,West,274,3.0,12.0,94,0.00,,BKN120,0.21,VWS V14.01,2013-09-21 01:46:00,
2013-09-20 20:51:00,51.4,49.7,29.88,West,275,1.0,7.0,94,0.00,,BKN110,0.21,VWS V14.01,2013-09-21 01:51:00,
2013-09-20 20:56:00,51.4,49.7,29.88,West,275,0.0,7.0,94,0.00,,BKN110,0.21,VWS V14.01,2013-09-21 01:56:00,
2013-09-20 21:00:00,52.5,50.5,29.86,West,267,0.0,7.0,93,0.00,,,0.21,VWS V15.00,2013-09-21 02:00:00,
2013-09-20 21:01:00,51.3,49.6,29.88,West,274,0.0,7.0,94,0.00,,BKN110,0.21,VWS V14.01,2013-09-21 02:01:00,
2013-09-20 21:06:00,51.1,49.4,29.88,West,272,6.0,7.0,94,0.00,,BKN110,0.21,VWS V14.01,2013-09-21 02:06:00,
2013-09-20 21:11:00,51.1,49.4,29.88,West,272,0.0,8.0,94,0.00,,BKN110,0.21,VWS V14.01,2013-09-21 02:11:00,
2013-09-20 21:15:00,51.9,49.9,29.86,West,272,5.0,10.0,93,0.00,,,0.21,VWS V15.00,2013-09-21 02:15:00,
2013-09-20 21:16:00,51.1,49.7,29.88,West,272,0.0,8.0,95,0.00,,BKN110,0.21,VWS V14.01,2013-09-21 02:16:00,
2013-09-20 21:21:00,51.1,49.7,29.88,West,272,0.0,0.0,95,0.00,,BKN110,0.21,VWS V14.01,2013-09-21 02:21:00,
2013-09-20 21:26:00,51.3,49.9,29.88,West,272,0.0,0.0,95,0.00,,BKN110,0.21,VWS V14.01,2013-09-21 02:26:00,
2013-09-20 21:30:00,51.9,50.2,29.87,West,281,5.0,10.0,94,0.00,,,0.21,VWS V15.00,2013-09-21 02:30:00,
2013-09-20 21:31:00,51.3,49.9,29.88,West,272,0.0,0.0,95,0.00,,BKN110,0.21,VWS V14.01,2013-09-21 02:31:00,
2013-09-20 21:36:00,51.3,49.9,29.89,West,272,0.0,0.0,95,0.00,,BKN110,0.21,VWS V14.01,2013-09-21 02:36:00,
2013-09-20 21:41:00,51.3,49.9,29.89,West,272,0.0,0.0,95,0.00,,BKN100,0.21,VWS V14.01,2013-09-21 02:41:00,
2013-09-20 21:45:00,51.6,49.9,29.88,West,275,4.0,12.0,94,0.00,,,0.21,VWS V15.00,2013-09-21 02:45:00,
2013-09-20 21:46:00,51.3,49.9,29.89,West,272,4.0,5.0,95,0.00,,BKN100,0.21,VWS V14.01,2013-09-21 02:46:00,
2013-09-20 21:51:00,51.3,49.9,29.89,West,272,0.0,0.0,95,0.00,,BKN100,0.21,VWS V14.01,2013-09-21 02:51:00,
2013-09-20 21:56:00,51.3,49.9,29.89,West,272,0.0,0.0,95,0.00,,BKN100,0.21,VWS V14.01,2013-09-21 02:56:00,
2013-09-20 22:00:00,51.3,49.6,29.88,West,273,5.0,7.0,94,0.00,,,0.21,VWS V15.00,2013-09-21 03:00:00,
2013-09-20 22:01:00,51.3,49.9,29.89,West,272,5.0,6.0,95,0.00,,OVC110,0.21,VWS V14.01,2013-09-21 03:01:00,
2013-09-20 22:06:00,51.0,49.6,29.89,West,274,3.0,6.0,95,0.00,,OVC110,0.21,VWS V14.01,2013-09-21 03:06:00,
2013-09-20 22:11:00,51.0,49.6,29.89,West,274,4.0,6.0,95,0.00,,OVC110,0.21,VWS V14.01,2013-09-21 03:11:00,
2013-09-20 22:15:00,51.1,49.4,29.88,West,272,0.0,8.0,94,0.00,,,0.21,VWS V15.00,2013-09-21 03:15:00,
2013-09-20 22:16:00,50.7,49.0,29.89,West,277,0.0,9.0,94,0.00,,OVC110,0.21,VWS V14.01,2013-09-21 03:16:00,
2013-09-20 22:22:00,50.5,48.8,29.89,West,277,0.0,0.0,94,0.00,,OVC110,0.21,VWS V14.01,2013-09-21 03:22:00,
2013-09-20 22:27:00,50.4,48.7,29.89,West,277,0.0,0.0,94,0.00,,OVC110,0.21,VWS V14.01,2013-09-21 03:27:00,
2013-09-20 22:30:00,51.3,49.9,29.89,West,272,0.0,0.0,95,0.00,,,0.21,VWS V15.00,2013-09-21 03:30:00,
2013-09-20 22:32:00,50.1,48.4,29.89,West,277,4.0,5.0,94,0.00,,OVC110,0.21,VWS V14.01,2013-09-21 03:32:00,
2013-09-20 22:37:00,49.9,48.2,29.89,West,277,5.0,6.0,94,0.00,,OVC110,0.21,VWS V14.01,2013-09-21 03:37:00,
2013-09-20 22:42:00,49.8,48.2,29.89,West,277,0.0,6.0,94,0.00,,BKN110,0.21,VWS V14.01,2013-09-21 03:42:00,
2013-09-20 22:45:00,51.3,49.9,29.89,West,272,0.0,5.0,95,0.00,,,0.21,VWS V15.00,2013-09-21 03:45:00,
2013-09-20 22:47:00,49.6,48.0,29.89,West,276,0.0,6.0,94,0.00,,BKN110,0.21,VWS V14.01,2013-09-21 03:47:00,
2013-09-20 22:52:00,49.4,47.8,29.89,West,276,4.0,6.0,94,0.01,,BKN110,0.22,VWS V14.01,2013-09-21 03:52:00,
2013-09-20 22:57:00,49.2,47.5,29.89,West,276,5.0,6.0,94,0.01,,BKN110,0.22,VWS V14.01,2013-09-21 03:57:00,
2013-09-20 23:00:00,51.3,49.9,29.89,West,273,5.0,7.0,95,0.00,,,0.21,VWS V15.00,2013-09-21 04:00:00,
2013-09-20 23:01:00,49.2,47.5,29.89,West,276,5.0,6.0,94,0.01,,BKN110,0.22,VWS V14.01,2013-09-21 04:01:00,
2013-09-20 23:04:00,49.1,47.5,29.90,West,276,4.0,6.0,94,0.01,,BKN110,0.22,VWS V14.01,2013-09-21 04:04:00,
2013-09-20 23:05:00,49.1,47.5,29.90,West,276,4.0,6.0,94,0.01,,BKN110,0.22,VWS V14.01,2013-09-21 04:05:00,
2013-09-20 23:06:00,49.1,47.7,29.90,West,276,3.0,6.0,95,0.01,,BKN110,0.22,VWS V14.01,2013-09-21 04:06:00,
2013-09-20 23:11:00,48.9,47.5,29.90,West,276,4.0,6.0,95,0.01,,BKN110,0.22,VWS V14.01,2013-09-21 04:11:00,
2013-09-20 23:13:00,48.9,47.5,29.90,West,276,3.0,6.0,95,0.01,,BKN110,0.22,VWS V14.01,2013-09-21 04:13:00,
2013-09-20 23:15:00,50.7,49.0,29.89,West,277,0.0,9.0,94,0.00,,,0.21,VWS V15.00,2013-09-21 04:15:00,
2013-09-20 23:18:00,48.8,47.4,29.90,West,276,4.0,4.0,95,0.01,,BKN110,0.22,VWS V14.01,2013-09-21 04:18:00,
2013-09-20 23:23:00,48.8,47.4,29.90,West,276,4.0,5.0,95,0.01,,BKN110,0.22,VWS V14.01,2013-09-21 04:23:00,
2013-09-20 23:28:00,48.6,47.2,29.90,West,276,3.0,5.0,95,0.01,,BKN110,0.22,VWS V14.01,2013-09-21 04:28:00,
2013-09-20 23:30:00,50.1,48.4,29.89,West,277,4.0,5.0,94,0.00,,OVC016,0.21,VWS V15.00,2013-09-21 04:30:00,
2013-09-20 23:33:00,48.6,47.2,29.90,West,276,3.0,4.0,95,0.01,,BKN110,0.22,VWS V14.01,2013-09-21 04:33:00,
2013-09-20 23:38:00,48.5,47.1,29.90,West,276,5.0,6.0,95,0.01,,BKN110,0.22,VWS V14.01,2013-09-21 04:38:00,
2013-09-20 23:43:00,48.3,46.9,29.90,West,276,3.0,6.0,95,0.01,,OVC110,0.22,VWS V14.01,2013-09-21 04:43:00,
2013-09-20 23:45:00,49.5,47.8,29.89,West,276,0.0,6.0,94,0.00,,OVC016,0.21,VWS V15.00,2013-09-21 04:45:00,
2013-09-20 23:48:00,48.0,46.6,29.90,West,276,5.0,5.0,95,0.01,,OVC110,0.22,VWS V14.01,2013-09-21 04:48:00,
2013-09-20 23:53:00,47.9,46.5,29.90,West,276,5.0,6.0,95,0.01,,BKN120,0.22,VWS V14.01,2013-09-21 04:53:00,
2013-09-20 23:59:00,47.9,46.5,29.90,West,276,4.0,6.0,95,0.01,,BKN120,0.22,VWS V14.01,2013-09-21 04:59:00,